Terminal Aerodrome Forecast
Issued by NWS

Home | Current Version | Previous Version | Graphics & Text | Print | Product List | Glossary On
Versions: 1 2 3 4 5 6 7 8 9 10 11 12 13 14 15 16 17 18 19 20
000
FTUS43 KMPX 190500
TAFRNH
TAF
KRNH 190520Z 1906/2006 VRB02KT P6SM FEW030
     FM190700 25003KT 5SM BR FEW009 SCT015
      TEMPO 1908/1910 1 1/2SM BR SCT002
     FM191000 28003KT 2SM BR OVC004
     FM191500 29006KT P6SM SCT020
     FM191800 31007KT P6SM VCSH SCT060 BKN100=

USA.gov is the U.S. government's official web portal to all federal, state and local government web resources and services.